sensor_id;sensor_type;location;lat;lon;timestamp;P1;durP1;ratioP1;P2;durP2;ratioP2
3993;SDS011;2011;48.238;13.948;2023-03-13T00:00:02;29.30;;;16.83;;
3993;SDS011;2011;48.238;13.948;2023-03-13T00:02:31;26.03;;;16.37;;
3993;SDS011;2011;48.238;13.948;2023-03-13T00:04:58;22.40;;;15.10;;
3993;SDS011;2011;48.238;13.948;2023-03-13T00:07:25;29.20;;;16.53;;
3993;SDS011;2011;48.238;13.948;2023-03-13T00:09:52;28.67;;;17.27;;
3993;SDS011;2011;48.238;13.948;2023-03-13T00:12:19;23.37;;;16.33;;
3993;SDS011;2011;48.238;13.948;2023-03-13T00:14:46;26.90;;;17.73;;
3993;SDS011;2011;48.238;13.948;2023-03-13T00:17:13;30.93;;;17.13;;
3993;SDS011;2011;48.238;13.948;2023-03-13T00:19:42;29.30;;;17.07;;
3993;SDS011;2011;48.238;13.948;2023-03-13T00:22:09;30.57;;;18.03;;
3993;SDS011;2011;48.238;13.948;2023-03-13T00:24:36;25.43;;;16.10;;
3993;SDS011;2011;48.238;13.948;2023-03-13T00:27:03;28.83;;;18.40;;
3993;SDS011;2011;48.238;13.948;2023-03-13T00:29:31;26.50;;;17.10;;
3993;SDS011;2011;48.238;13.948;2023-03-13T00:31:59;25.48;;;15.73;;
3993;SDS011;2011;48.238;13.948;2023-03-13T00:34:26;26.73;;;16.27;;
3993;SDS011;2011;48.238;13.948;2023-03-13T00:36:55;26.45;;;16.95;;
3993;SDS011;2011;48.238;13.948;2023-03-13T00:39:22;29.40;;;17.60;;
3993;SDS011;2011;48.238;13.948;2023-03-13T00:41:49;24.40;;;15.40;;
3993;SDS011;2011;48.238;13.948;2023-03-13T00:44:16;24.07;;;15.80;;
3993;SDS011;2011;48.238;13.948;2023-03-13T00:46:43;35.00;;;20.97;;
3993;SDS011;2011;48.238;13.948;2023-03-13T00:49:10;26.83;;;17.13;;
3993;SDS011;2011;48.238;13.948;2023-03-13T00:51:37;29.05;;;16.95;;
3993;SDS011;2011;48.238;13.948;2023-03-13T00:54:05;33.37;;;17.50;;
3993;SDS011;2011;48.238;13.948;2023-03-13T00:56:32;33.38;;;19.02;;
3993;SDS011;2011;48.238;13.948;2023-03-13T00:58:59;24.07;;;16.20;;
3993;SDS011;2011;48.238;13.948;2023-03-13T01:01:27;22.63;;;15.97;;
3993;SDS011;2011;48.238;13.948;2023-03-13T01:03:56;26.37;;;18.10;;
3993;SDS011;2011;48.238;13.948;2023-03-13T01:06:25;27.60;;;17.60;;
3993;SDS011;2011;48.238;13.948;2023-03-13T01:08:54;25.77;;;16.30;;
3993;SDS011;2011;48.238;13.948;2023-03-13T01:11:24;26.30;;;17.45;;
3993;SDS011;2011;48.238;13.948;2023-03-13T01:13:53;25.47;;;16.00;;
3993;SDS011;2011;48.238;13.948;2023-03-13T01:16:20;28.73;;;17.90;;
3993;SDS011;2011;48.238;13.948;2023-03-13T01:18:49;31.98;;;19.00;;
3993;SDS011;2011;48.238;13.948;2023-03-13T01:21:17;573.87;;;44.63;;
3993;SDS011;2011;48.238;13.948;2023-03-13T01:23:45;232.03;;;24.77;;
3993;SDS011;2011;48.238;13.948;2023-03-13T01:26:12;56.10;;;24.10;;
3993;SDS011;2011;48.238;13.948;2023-03-13T01:28:40;28.87;;;19.10;;
3993;SDS011;2011;48.238;13.948;2023-03-13T01:31:12;43.60;;;23.33;;
3993;SDS011;2011;48.238;13.948;2023-03-13T01:33:43;28.20;;;17.27;;
3993;SDS011;2011;48.238;13.948;2023-03-13T01:36:11;31.67;;;18.25;;
3993;SDS011;2011;48.238;13.948;2023-03-13T01:38:39;30.43;;;20.27;;
3993;SDS011;2011;48.238;13.948;2023-03-13T01:41:07;26.70;;;17.90;;
3993;SDS011;2011;48.238;13.948;2023-03-13T01:43:36;30.15;;;18.48;;
3993;SDS011;2011;48.238;13.948;2023-03-13T01:46:14;33.83;;;19.33;;
3993;SDS011;2011;48.238;13.948;2023-03-13T01:48:44;26.98;;;17.83;;
3993;SDS011;2011;48.238;13.948;2023-03-13T01:51:17;29.55;;;15.40;;
3993;SDS011;2011;48.238;13.948;2023-03-13T01:53:49;32.43;;;18.50;;
3993;SDS011;2011;48.238;13.948;2023-03-13T01:56:21;32.08;;;18.73;;
3993;SDS011;2011;48.238;13.948;2023-03-13T01:58:54;34.05;;;18.48;;
3993;SDS011;2011;48.238;13.948;2023-03-13T02:01:25;32.00;;;19.15;;
3993;SDS011;2011;48.238;13.948;2023-03-13T02:03:52;25.52;;;16.75;;
3993;SDS011;2011;48.238;13.948;2023-03-13T02:06:21;26.67;;;17.05;;
3993;SDS011;2011;48.238;13.948;2023-03-13T02:08:49;28.60;;;17.40;;
3993;SDS011;2011;48.238;13.948;2023-03-13T02:11:22;37.30;;;18.90;;
3993;SDS011;2011;48.238;13.948;2023-03-13T02:13:53;37.33;;;21.60;;
3993;SDS011;2011;48.238;13.948;2023-03-13T02:16:21;40.40;;;22.63;;
3993;SDS011;2011;48.238;13.948;2023-03-13T02:18:49;42.83;;;25.05;;
3993;SDS011;2011;48.238;13.948;2023-03-13T02:21:19;34.65;;;21.00;;
3993;SDS011;2011;48.238;13.948;2023-03-13T02:23:58;36.83;;;22.05;;
3993;SDS011;2011;48.238;13.948;2023-03-13T02:26:32;33.63;;;19.75;;
3993;SDS011;2011;48.238;13.948;2023-03-13T02:28:59;34.83;;;20.85;;
3993;SDS011;2011;48.238;13.948;2023-03-13T02:31:26;27.65;;;18.33;;
3993;SDS011;2011;48.238;13.948;2023-03-13T02:33:54;30.63;;;18.45;;
3993;SDS011;2011;48.238;13.948;2023-03-13T02:36:25;29.70;;;18.73;;
3993;SDS011;2011;48.238;13.948;2023-03-13T02:38:56;44.60;;;21.83;;
3993;SDS011;2011;48.238;13.948;2023-03-13T02:41:27;35.28;;;19.20;;
3993;SDS011;2011;48.238;13.948;2023-03-13T02:43:56;36.60;;;20.67;;
3993;SDS011;2011;48.238;13.948;2023-03-13T02:46:23;33.33;;;20.88;;
3993;SDS011;2011;48.238;13.948;2023-03-13T02:48:50;46.83;;;22.50;;
3993;SDS011;2011;48.238;13.948;2023-03-13T02:51:21;51.08;;;26.67;;
3993;SDS011;2011;48.238;13.948;2023-03-13T02:53:54;35.40;;;22.63;;
3993;SDS011;2011;48.238;13.948;2023-03-13T02:56:26;37.88;;;20.75;;
3993;SDS011;2011;48.238;13.948;2023-03-13T02:58:56;35.25;;;21.90;;
3993;SDS011;2011;48.238;13.948;2023-03-13T03:01:23;39.72;;;23.65;;
3993;SDS011;2011;48.238;13.948;2023-03-13T03:03:50;224.65;;;41.15;;
3993;SDS011;2011;48.238;13.948;2023-03-13T03:06:17;37.22;;;22.38;;
3993;SDS011;2011;48.238;13.948;2023-03-13T03:08:44;36.53;;;22.00;;
3993;SDS011;2011;48.238;13.948;2023-03-13T03:11:11;37.05;;;23.77;;
3993;SDS011;2011;48.238;13.948;2023-03-13T03:13:38;35.67;;;24.25;;
3993;SDS011;2011;48.238;13.948;2023-03-13T03:16:07;36.67;;;20.85;;
3993;SDS011;2011;48.238;13.948;2023-03-13T03:18:36;41.70;;;21.52;;
3993;SDS011;2011;48.238;13.948;2023-03-13T03:21:03;37.03;;;23.50;;
3993;SDS011;2011;48.238;13.948;2023-03-13T03:23:31;34.17;;;20.88;;
3993;SDS011;2011;48.238;13.948;2023-03-13T03:25:59;32.55;;;19.50;;
3993;SDS011;2011;48.238;13.948;2023-03-13T03:28:26;41.85;;;22.77;;
3993;SDS011;2011;48.238;13.948;2023-03-13T03:30:53;41.60;;;24.85;;
3993;SDS011;2011;48.238;13.948;2023-03-13T03:33:21;45.28;;;27.50;;
3993;SDS011;2011;48.238;13.948;2023-03-13T03:35:49;50.35;;;27.55;;
3993;SDS011;2011;48.238;13.948;2023-03-13T03:38:17;41.35;;;25.20;;
3993;SDS011;2011;48.238;13.948;2023-03-13T03:40:44;42.13;;;24.42;;
3993;SDS011;2011;48.238;13.948;2023-03-13T03:43:11;35.47;;;22.35;;
3993;SDS011;2011;48.238;13.948;2023-03-13T03:45:38;34.90;;;20.67;;
3993;SDS011;2011;48.238;13.948;2023-03-13T03:48:05;32.90;;;20.85;;
3993;SDS011;2011;48.238;13.948;2023-03-13T03:50:33;34.75;;;21.45;;
3993;SDS011;2011;48.238;13.948;2023-03-13T03:53:00;32.97;;;19.60;;
3993;SDS011;2011;48.238;13.948;2023-03-13T03:55:27;85.13;;;21.77;;
3993;SDS011;2011;48.238;13.948;2023-03-13T03:57:54;40.83;;;19.77;;
3993;SDS011;2011;48.238;13.948;2023-03-13T04:00:21;50.40;;;19.88;;
3993;SDS011;2011;48.238;13.948;2023-03-13T04:02:49;119.57;;;23.50;;
3993;SDS011;2011;48.238;13.948;2023-03-13T04:05:16;38.50;;;21.42;;
3993;SDS011;2011;48.238;13.948;2023-03-13T04:07:44;38.08;;;20.80;;
3993;SDS011;2011;48.238;13.948;2023-03-13T04:10:11;40.00;;;21.88;;
3993;SDS011;2011;48.238;13.948;2023-03-13T04:12:38;34.55;;;19.60;;
3993;SDS011;2011;48.238;13.948;2023-03-13T04:15:06;31.38;;;18.15;;
3993;SDS011;2011;48.238;13.948;2023-03-13T04:17:34;37.55;;;19.30;;
3993;SDS011;2011;48.238;13.948;2023-03-13T04:20:01;46.65;;;19.35;;
3993;SDS011;2011;48.238;13.948;2023-03-13T04:22:29;33.92;;;17.88;;
3993;SDS011;2011;48.238;13.948;2023-03-13T04:24:58;39.28;;;18.80;;
3993;SDS011;2011;48.238;13.948;2023-03-13T04:27:25;46.08;;;19.00;;
3993;SDS011;2011;48.238;13.948;2023-03-13T04:29:52;221.82;;;28.45;;
3993;SDS011;2011;48.238;13.948;2023-03-13T04:32:19;248.80;;;23.73;;
3993;SDS011;2011;48.238;13.948;2023-03-13T04:34:46;65.38;;;27.15;;
3993;SDS011;2011;48.238;13.948;2023-03-13T04:37:13;38.17;;;22.35;;
3993;SDS011;2011;48.238;13.948;2023-03-13T04:39:40;30.42;;;18.52;;
3993;SDS011;2011;48.238;13.948;2023-03-13T04:42:09;28.95;;;16.60;;
3993;SDS011;2011;48.238;13.948;2023-03-13T04:44:37;66.85;;;22.80;;
3993;SDS011;2011;48.238;13.948;2023-03-13T04:47:04;97.35;;;23.77;;
3993;SDS011;2011;48.238;13.948;2023-03-13T04:49:31;222.38;;;30.52;;
3993;SDS011;2011;48.238;13.948;2023-03-13T04:51:59;53.28;;;25.58;;
3993;SDS011;2011;48.238;13.948;2023-03-13T04:54:26;155.38;;;29.48;;
3993;SDS011;2011;48.238;13.948;2023-03-13T04:56:53;51.78;;;24.23;;
3993;SDS011;2011;48.238;13.948;2023-03-13T04:59:21;69.65;;;25.50;;
3993;SDS011;2011;48.238;13.948;2023-03-13T05:01:48;56.03;;;25.67;;
3993;SDS011;2011;48.238;13.948;2023-03-13T05:04:15;100.45;;;23.40;;
3993;SDS011;2011;48.238;13.948;2023-03-13T05:06:42;42.78;;;21.75;;
3993;SDS011;2011;48.238;13.948;2023-03-13T05:09:09;84.28;;;30.27;;
3993;SDS011;2011;48.238;13.948;2023-03-13T05:11:36;42.50;;;22.83;;
3993;SDS011;2011;48.238;13.948;2023-03-13T05:14:04;35.75;;;21.15;;
3993;SDS011;2011;48.238;13.948;2023-03-13T05:16:34;86.43;;;26.27;;
3993;SDS011;2011;48.238;13.948;2023-03-13T05:19:02;52.53;;;23.25;;
3993;SDS011;2011;48.238;13.948;2023-03-13T05:21:29;46.70;;;23.50;;
3993;SDS011;2011;48.238;13.948;2023-03-13T05:23:56;95.65;;;24.92;;
3993;SDS011;2011;48.238;13.948;2023-03-13T05:26:23;51.03;;;23.50;;
3993;SDS011;2011;48.238;13.948;2023-03-13T05:28:50;80.57;;;23.92;;
3993;SDS011;2011;48.238;13.948;2023-03-13T05:31:17;44.30;;;23.80;;
3993;SDS011;2011;48.238;13.948;2023-03-13T05:33:45;77.60;;;24.77;;
3993;SDS011;2011;48.238;13.948;2023-03-13T05:36:12;165.90;;;29.38;;
3993;SDS011;2011;48.238;13.948;2023-03-13T05:38:39;74.70;;;26.42;;
3993;SDS011;2011;48.238;13.948;2023-03-13T05:41:06;47.00;;;24.08;;
3993;SDS011;2011;48.238;13.948;2023-03-13T05:43:33;42.17;;;22.20;;
3993;SDS011;2011;48.238;13.948;2023-03-13T05:46:00;51.30;;;24.20;;
3993;SDS011;2011;48.238;13.948;2023-03-13T05:48:27;45.78;;;22.35;;
3993;SDS011;2011;48.238;13.948;2023-03-13T05:50:56;56.15;;;23.85;;
3993;SDS011;2011;48.238;13.948;2023-03-13T05:53:23;74.45;;;21.48;;
3993;SDS011;2011;48.238;13.948;2023-03-13T05:55:50;43.83;;;23.02;;
3993;SDS011;2011;48.238;13.948;2023-03-13T05:58:17;54.90;;;20.80;;
3993;SDS011;2011;48.238;13.948;2023-03-13T06:00:44;55.30;;;23.42;;
3993;SDS011;2011;48.238;13.948;2023-03-13T06:03:11;43.05;;;22.58;;
3993;SDS011;2011;48.238;13.948;2023-03-13T06:05:38;39.60;;;22.63;;
3993;SDS011;2011;48.238;13.948;2023-03-13T06:08:06;36.80;;;21.38;;
3993;SDS011;2011;48.238;13.948;2023-03-13T06:10:33;45.95;;;21.45;;
3993;SDS011;2011;48.238;13.948;2023-03-13T06:13:00;111.20;;;28.35;;
3993;SDS011;2011;48.238;13.948;2023-03-13T06:15:27;50.20;;;24.27;;
3993;SDS011;2011;48.238;13.948;2023-03-13T06:17:54;45.33;;;22.30;;
3993;SDS011;2011;48.238;13.948;2023-03-13T06:20:21;65.75;;;24.55;;
3993;SDS011;2011;48.238;13.948;2023-03-13T06:22:48;222.50;;;26.88;;
3993;SDS011;2011;48.238;13.948;2023-03-13T06:25:16;176.07;;;26.88;;
3993;SDS011;2011;48.238;13.948;2023-03-13T06:27:43;180.90;;;33.22;;
3993;SDS011;2011;48.238;13.948;2023-03-13T06:30:11;79.78;;;24.17;;
3993;SDS011;2011;48.238;13.948;2023-03-13T06:32:38;65.38;;;26.25;;
3993;SDS011;2011;48.238;13.948;2023-03-13T06:35:05;58.83;;;26.33;;
3993;SDS011;2011;48.238;13.948;2023-03-13T06:37:32;63.70;;;33.20;;
3993;SDS011;2011;48.238;13.948;2023-03-13T06:39:59;94.60;;;24.10;;
3993;SDS011;2011;48.238;13.948;2023-03-13T06:42:28;99.40;;;23.58;;
3993;SDS011;2011;48.238;13.948;2023-03-13T06:44:55;76.00;;;25.65;;
3993;SDS011;2011;48.238;13.948;2023-03-13T06:47:22;51.40;;;23.65;;
3993;SDS011;2011;48.238;13.948;2023-03-13T06:49:49;48.50;;;23.73;;
3993;SDS011;2011;48.238;13.948;2023-03-13T06:52:16;75.57;;;28.42;;
3993;SDS011;2011;48.238;13.948;2023-03-13T06:54:43;57.33;;;23.52;;
3993;SDS011;2011;48.238;13.948;2023-03-13T06:57:10;43.40;;;22.83;;
3993;SDS011;2011;48.238;13.948;2023-03-13T06:59:38;47.30;;;24.92;;
3993;SDS011;2011;48.238;13.948;2023-03-13T07:02:05;46.30;;;22.25;;
3993;SDS011;2011;48.238;13.948;2023-03-13T07:04:32;47.28;;;23.65;;
3993;SDS011;2011;48.238;13.948;2023-03-13T07:06:59;41.70;;;19.50;;
3993;SDS011;2011;48.238;13.948;2023-03-13T07:09:26;91.30;;;25.65;;
3993;SDS011;2011;48.238;13.948;2023-03-13T07:11:53;255.18;;;29.73;;
3993;SDS011;2011;48.238;13.948;2023-03-13T07:14:22;41.50;;;20.57;;
3993;SDS011;2011;48.238;13.948;2023-03-13T07:16:50;52.33;;;22.52;;
3993;SDS011;2011;48.238;13.948;2023-03-13T07:19:17;46.45;;;20.98;;
3993;SDS011;2011;48.238;13.948;2023-03-13T07:21:44;37.70;;;20.23;;
3993;SDS011;2011;48.238;13.948;2023-03-13T07:24:11;44.20;;;24.45;;
3993;SDS011;2011;48.238;13.948;2023-03-13T07:26:38;54.00;;;27.40;;
3993;SDS011;2011;48.238;13.948;2023-03-13T07:29:05;128.20;;;31.50;;
3993;SDS011;2011;48.238;13.948;2023-03-13T07:31:32;52.28;;;26.65;;
3993;SDS011;2011;48.238;13.948;2023-03-13T07:34:00;49.25;;;24.25;;
3993;SDS011;2011;48.238;13.948;2023-03-13T07:36:27;57.27;;;26.30;;
3993;SDS011;2011;48.238;13.948;2023-03-13T07:38:55;40.40;;;22.43;;
3993;SDS011;2011;48.238;13.948;2023-03-13T07:41:22;57.55;;;23.63;;
3993;SDS011;2011;48.238;13.948;2023-03-13T07:43:49;52.40;;;28.80;;
3993;SDS011;2011;48.238;13.948;2023-03-13T07:46:16;62.42;;;30.40;;
3993;SDS011;2011;48.238;13.948;2023-03-13T07:48:44;48.03;;;26.23;;
3993;SDS011;2011;48.238;13.948;2023-03-13T07:51:13;50.17;;;25.60;;
3993;SDS011;2011;48.238;13.948;2023-03-13T07:53:42;54.40;;;27.80;;
3993;SDS011;2011;48.238;13.948;2023-03-13T07:56:09;45.13;;;26.10;;
3993;SDS011;2011;48.238;13.948;2023-03-13T07:58:38;46.77;;;25.87;;
3993;SDS011;2011;48.238;13.948;2023-03-13T08:01:09;48.40;;;27.17;;
3993;SDS011;2011;48.238;13.948;2023-03-13T08:03:37;52.60;;;28.30;;
3993;SDS011;2011;48.238;13.948;2023-03-13T08:06:05;42.70;;;25.77;;
3993;SDS011;2011;48.238;13.948;2023-03-13T08:08:36;42.47;;;25.60;;
3993;SDS011;2011;48.238;13.948;2023-03-13T08:11:04;45.90;;;28.07;;
3993;SDS011;2011;48.238;13.948;2023-03-13T08:13:32;42.93;;;24.77;;
3993;SDS011;2011;48.238;13.948;2023-03-13T08:16:04;45.17;;;25.90;;
3993;SDS011;2011;48.238;13.948;2023-03-13T08:18:32;39.43;;;24.87;;
3993;SDS011;2011;48.238;13.948;2023-03-13T08:21:01;42.77;;;24.70;;
3993;SDS011;2011;48.238;13.948;2023-03-13T08:23:28;36.80;;;22.40;;
3993;SDS011;2011;48.238;13.948;2023-03-13T08:26:01;47.07;;;25.53;;
3993;SDS011;2011;48.238;13.948;2023-03-13T08:28:29;37.13;;;23.13;;
3993;SDS011;2011;48.238;13.948;2023-03-13T08:30:56;36.73;;;22.47;;
3993;SDS011;2011;48.238;13.948;2023-03-13T08:33:23;49.50;;;27.30;;
3993;SDS011;2011;48.238;13.948;2023-03-13T08:35:50;36.40;;;21.97;;
3993;SDS011;2011;48.238;13.948;2023-03-13T08:38:17;45.17;;;25.63;;
3993;SDS011;2011;48.238;13.948;2023-03-13T08:40:47;43.57;;;24.20;;
3993;SDS011;2011;48.238;13.948;2023-03-13T08:43:16;41.07;;;24.93;;
3993;SDS011;2011;48.238;13.948;2023-03-13T08:45:43;39.47;;;24.97;;
3993;SDS011;2011;48.238;13.948;2023-03-13T08:48:10;41.10;;;26.27;;
3993;SDS011;2011;48.238;13.948;2023-03-13T08:50:37;45.47;;;25.60;;
3993;SDS011;2011;48.238;13.948;2023-03-13T08:53:04;39.90;;;23.37;;
3993;SDS011;2011;48.238;13.948;2023-03-13T08:55:31;38.50;;;24.10;;
3993;SDS011;2011;48.238;13.948;2023-03-13T08:57:59;34.83;;;21.03;;
3993;SDS011;2011;48.238;13.948;2023-03-13T09:00:27;36.23;;;23.30;;
3993;SDS011;2011;48.238;13.948;2023-03-13T09:02:55;31.37;;;20.93;;
3993;SDS011;2011;48.238;13.948;2023-03-13T09:05:23;35.37;;;20.23;;
3993;SDS011;2011;48.238;13.948;2023-03-13T09:07:49;35.93;;;21.10;;
3993;SDS011;2011;48.238;13.948;2023-03-13T09:10:16;29.20;;;18.93;;
3993;SDS011;2011;48.238;13.948;2023-03-13T09:12:43;32.30;;;19.57;;
3993;SDS011;2011;48.238;13.948;2023-03-13T09:15:11;32.13;;;19.87;;
3993;SDS011;2011;48.238;13.948;2023-03-13T09:17:40;30.83;;;19.90;;
3993;SDS011;2011;48.238;13.948;2023-03-13T09:20:08;35.63;;;23.50;;
3993;SDS011;2011;48.238;13.948;2023-03-13T09:22:35;37.40;;;23.07;;
3993;SDS011;2011;48.238;13.948;2023-03-13T09:25:02;36.80;;;23.70;;
3993;SDS011;2011;48.238;13.948;2023-03-13T09:27:30;35.40;;;21.93;;
3993;SDS011;2011;48.238;13.948;2023-03-13T09:29:57;34.03;;;22.80;;
3993;SDS011;2011;48.238;13.948;2023-03-13T09:32:24;36.60;;;22.70;;
3993;SDS011;2011;48.238;13.948;2023-03-13T09:34:53;33.13;;;19.40;;
3993;SDS011;2011;48.238;13.948;2023-03-13T09:37:20;27.63;;;17.80;;
3993;SDS011;2011;48.238;13.948;2023-03-13T09:39:47;32.13;;;18.57;;
3993;SDS011;2011;48.238;13.948;2023-03-13T09:42:15;26.67;;;15.90;;
3993;SDS011;2011;48.238;13.948;2023-03-13T09:44:45;30.53;;;17.50;;
3993;SDS011;2011;48.238;13.948;2023-03-13T09:47:17;32.50;;;17.70;;
3993;SDS011;2011;48.238;13.948;2023-03-13T09:49:50;30.63;;;16.73;;
3993;SDS011;2011;48.238;13.948;2023-03-13T09:52:22;28.77;;;15.97;;
3993;SDS011;2011;48.238;13.948;2023-03-13T09:54:51;29.80;;;17.30;;
3993;SDS011;2011;48.238;13.948;2023-03-13T09:57:23;26.83;;;17.20;;
3993;SDS011;2011;48.238;13.948;2023-03-13T09:59:57;27.57;;;18.20;;
3993;SDS011;2011;48.238;13.948;2023-03-13T10:02:31;35.17;;;19.27;;
3993;SDS011;2011;48.238;13.948;2023-03-13T10:05:06;30.70;;;18.70;;
3993;SDS011;2011;48.238;13.948;2023-03-13T10:07:41;33.43;;;20.17;;
3993;SDS011;2011;48.238;13.948;2023-03-13T10:10:10;33.50;;;20.00;;
3993;SDS011;2011;48.238;13.948;2023-03-13T10:12:40;30.60;;;20.17;;
3993;SDS011;2011;48.238;13.948;2023-03-13T10:15:31;44.17;;;24.23;;
3993;SDS011;2011;48.238;13.948;2023-03-13T10:18:09;34.03;;;20.50;;
3993;SDS011;2011;48.238;13.948;2023-03-13T10:20:43;40.23;;;21.47;;
3993;SDS011;2011;48.238;13.948;2023-03-13T10:23:13;31.07;;;19.87;;
3993;SDS011;2011;48.238;13.948;2023-03-13T10:25:45;33.43;;;21.00;;
3993;SDS011;2011;48.238;13.948;2023-03-13T10:28:13;31.23;;;19.20;;
3993;SDS011;2011;48.238;13.948;2023-03-13T10:30:42;33.67;;;19.10;;
3993;SDS011;2011;48.238;13.948;2023-03-13T10:33:19;37.87;;;21.60;;
3993;SDS011;2011;48.238;13.948;2023-03-13T10:36:00;32.23;;;19.93;;
3993;SDS011;2011;48.238;13.948;2023-03-13T10:38:29;33.63;;;19.63;;
3993;SDS011;2011;48.238;13.948;2023-03-13T10:41:00;32.10;;;17.80;;
3993;SDS011;2011;48.238;13.948;2023-03-13T10:43:31;25.87;;;16.20;;
3993;SDS011;2011;48.238;13.948;2023-03-13T10:45:58;29.00;;;16.40;;
3993;SDS011;2011;48.238;13.948;2023-03-13T10:48:26;28.63;;;16.47;;
3993;SDS011;2011;48.238;13.948;2023-03-13T10:50:56;23.40;;;16.27;;
3993;SDS011;2011;48.238;13.948;2023-03-13T10:53:30;34.77;;;20.27;;
3993;SDS011;2011;48.238;13.948;2023-03-13T10:55:59;40.57;;;15.63;;
3993;SDS011;2011;48.238;13.948;2023-03-13T10:58:34;29.63;;;15.87;;
3993;SDS011;2011;48.238;13.948;2023-03-13T11:01:13;36.27;;;17.13;;
3993;SDS011;2011;48.238;13.948;2023-03-13T11:03:43;27.67;;;15.47;;
3993;SDS011;2011;48.238;13.948;2023-03-13T11:06:28;28.67;;;15.47;;
3993;SDS011;2011;48.238;13.948;2023-03-13T11:09:04;25.03;;;15.00;;
3993;SDS011;2011;48.238;13.948;2023-03-13T11:11:42;25.00;;;14.87;;
3993;SDS011;2011;48.238;13.948;2023-03-13T11:14:14;31.17;;;14.67;;
3993;SDS011;2011;48.238;13.948;2023-03-13T11:16:46;21.67;;;13.73;;
3993;SDS011;2011;48.238;13.948;2023-03-13T11:22:23;30.03;;;15.93;;
3993;SDS011;2011;48.238;13.948;2023-03-13T11:24:59;21.30;;;14.13;;
3993;SDS011;2011;48.238;13.948;2023-03-13T11:27:35;26.23;;;15.40;;
3993;SDS011;2011;48.238;13.948;2023-03-13T11:30:14;25.93;;;14.37;;
3993;SDS011;2011;48.238;13.948;2023-03-13T11:32:47;25.30;;;13.70;;
3993;SDS011;2011;48.238;13.948;2023-03-13T11:35:25;36.00;;;14.83;;
3993;SDS011;2011;48.238;13.948;2023-03-13T11:38:02;25.17;;;14.43;;
3993;SDS011;2011;48.238;13.948;2023-03-13T11:40:35;20.93;;;13.27;;
3993;SDS011;2011;48.238;13.948;2023-03-13T11:43:13;22.53;;;13.60;;
3993;SDS011;2011;48.238;13.948;2023-03-13T11:45:54;24.67;;;13.30;;
3993;SDS011;2011;48.238;13.948;2023-03-13T11:48:47;27.53;;;13.07;;
3993;SDS011;2011;48.238;13.948;2023-03-13T11:51:24;18.13;;;11.27;;
3993;SDS011;2011;48.238;13.948;2023-03-13T11:54:12;25.63;;;12.30;;
3993;SDS011;2011;48.238;13.948;2023-03-13T11:56:56;18.10;;;10.83;;
3993;SDS011;2011;48.238;13.948;2023-03-13T11:59:27;18.47;;;10.30;;
3993;SDS011;2011;48.238;13.948;2023-03-13T12:02:03;16.47;;;10.03;;
3993;SDS011;2011;48.238;13.948;2023-03-13T12:04:41;23.17;;;10.07;;
3993;SDS011;2011;48.238;13.948;2023-03-13T12:07:17;16.40;;;9.00;;
3993;SDS011;2011;48.238;13.948;2023-03-13T12:09:48;21.03;;;11.03;;
3993;SDS011;2011;48.238;13.948;2023-03-13T12:12:23;15.63;;;8.30;;
3993;SDS011;2011;48.238;13.948;2023-03-13T12:14:59;16.27;;;10.20;;
3993;SDS011;2011;48.238;13.948;2023-03-13T12:17:33;19.33;;;10.70;;
3993;SDS011;2011;48.238;13.948;2023-03-13T12:20:03;20.43;;;10.70;;
3993;SDS011;2011;48.238;13.948;2023-03-13T12:22:35;21.97;;;11.40;;
3993;SDS011;2011;48.238;13.948;2023-03-13T12:25:09;20.23;;;11.90;;
3993;SDS011;2011;48.238;13.948;2023-03-13T12:27:42;21.90;;;11.70;;
3993;SDS011;2011;48.238;13.948;2023-03-13T12:30:17;22.03;;;10.73;;
3993;SDS011;2011;48.238;13.948;2023-03-13T12:32:51;18.17;;;11.30;;
3993;SDS011;2011;48.238;13.948;2023-03-13T12:35:25;17.13;;;10.47;;
3993;SDS011;2011;48.238;13.948;2023-03-13T12:37:54;19.27;;;9.97;;
3993;SDS011;2011;48.238;13.948;2023-03-13T12:40:30;16.77;;;8.53;;
3993;SDS011;2011;48.238;13.948;2023-03-13T12:43:03;17.97;;;10.23;;
3993;SDS011;2011;48.238;13.948;2023-03-13T12:45:35;13.90;;;8.87;;
3993;SDS011;2011;48.238;13.948;2023-03-13T12:48:17;22.00;;;9.20;;
3993;SDS011;2011;48.238;13.948;2023-03-13T12:51:03;14.33;;;8.30;;
3993;SDS011;2011;48.238;13.948;2023-03-13T12:57:12;17.10;;;7.50;;
3993;SDS011;2011;48.238;13.948;2023-03-13T12:59:48;12.53;;;7.57;;
3993;SDS011;2011;48.238;13.948;2023-03-13T13:02:20;15.80;;;7.20;;
3993;SDS011;2011;48.238;13.948;2023-03-13T13:04:49;10.93;;;6.80;;
3993;SDS011;2011;48.238;13.948;2023-03-13T13:07:23;15.13;;;6.90;;
3993;SDS011;2011;48.238;13.948;2023-03-13T13:09:59;10.50;;;6.60;;
3993;SDS011;2011;48.238;13.948;2023-03-13T13:12:42;20.97;;;9.27;;
3993;SDS011;2011;48.238;13.948;2023-03-13T13:15:13;18.23;;;9.30;;
3993;SDS011;2011;48.238;13.948;2023-03-13T13:17:46;16.40;;;8.97;;
3993;SDS011;2011;48.238;13.948;2023-03-13T13:20:29;13.90;;;8.80;;
3993;SDS011;2011;48.238;13.948;2023-03-13T13:25:49;18.70;;;8.87;;
3993;SDS011;2011;48.238;13.948;2023-03-13T13:28:22;15.60;;;8.90;;
3993;SDS011;2011;48.238;13.948;2023-03-13T13:31:00;13.60;;;8.37;;
3993;SDS011;2011;48.238;13.948;2023-03-13T13:33:37;21.90;;;8.80;;
3993;SDS011;2011;48.238;13.948;2023-03-13T13:36:26;16.57;;;8.93;;
3993;SDS011;2011;48.238;13.948;2023-03-13T13:39:04;16.93;;;8.40;;
3993;SDS011;2011;48.238;13.948;2023-03-13T13:41:55;16.13;;;8.17;;
3993;SDS011;2011;48.238;13.948;2023-03-13T13:44:23;19.93;;;8.70;;
3993;SDS011;2011;48.238;13.948;2023-03-13T13:46:54;14.80;;;8.77;;
3993;SDS011;2011;48.238;13.948;2023-03-13T13:49:25;14.67;;;8.30;;
3993;SDS011;2011;48.238;13.948;2023-03-13T13:54:58;14.60;;;8.93;;
3993;SDS011;2011;48.238;13.948;2023-03-13T13:57:28;16.40;;;9.07;;
3993;SDS011;2011;48.238;13.948;2023-03-13T13:59:58;14.67;;;8.90;;
3993;SDS011;2011;48.238;13.948;2023-03-13T14:02:33;18.63;;;8.93;;
3993;SDS011;2011;48.238;13.948;2023-03-13T14:05:02;23.10;;;10.00;;
3993;SDS011;2011;48.238;13.948;2023-03-13T14:07:45;18.23;;;10.17;;
3993;SDS011;2011;48.238;13.948;2023-03-13T14:10:35;26.00;;;9.20;;
3993;SDS011;2011;48.238;13.948;2023-03-13T14:13:09;17.73;;;9.07;;
3993;SDS011;2011;48.238;13.948;2023-03-13T14:15:40;20.53;;;9.10;;
3993;SDS011;2011;48.238;13.948;2023-03-13T14:18:10;16.60;;;9.43;;
3993;SDS011;2011;48.238;13.948;2023-03-13T14:20:50;17.80;;;8.70;;
3993;SDS011;2011;48.238;13.948;2023-03-13T14:23:28;12.90;;;7.90;;
3993;SDS011;2011;48.238;13.948;2023-03-13T14:26:14;16.50;;;7.83;;
3993;SDS011;2011;48.238;13.948;2023-03-13T14:28:43;15.63;;;9.00;;
3993;SDS011;2011;48.238;13.948;2023-03-13T14:31:19;25.23;;;9.10;;
3993;SDS011;2011;48.238;13.948;2023-03-13T14:33:49;15.10;;;8.77;;
3993;SDS011;2011;48.238;13.948;2023-03-13T14:36:16;19.67;;;9.30;;
3993;SDS011;2011;48.238;13.948;2023-03-13T14:38:49;19.20;;;8.40;;
3993;SDS011;2011;48.238;13.948;2023-03-13T14:41:22;16.80;;;8.97;;
3993;SDS011;2011;48.238;13.948;2023-03-13T14:43:52;14.53;;;8.00;;
3993;SDS011;2011;48.238;13.948;2023-03-13T14:46:22;19.90;;;8.80;;
3993;SDS011;2011;48.238;13.948;2023-03-13T14:48:55;16.37;;;8.50;;
3993;SDS011;2011;48.238;13.948;2023-03-13T14:51:23;18.47;;;8.23;;
3993;SDS011;2011;48.238;13.948;2023-03-13T14:53:52;29.17;;;8.40;;
3993;SDS011;2011;48.238;13.948;2023-03-13T14:56:28;18.03;;;7.90;;
3993;SDS011;2011;48.238;13.948;2023-03-13T14:59:05;14.73;;;7.07;;
3993;SDS011;2011;48.238;13.948;2023-03-13T15:01:41;14.13;;;6.80;;
3993;SDS011;2011;48.238;13.948;2023-03-13T15:04:09;21.90;;;9.70;;